Time;durP1;ratioP1;P1;durP2;ratioP2;P2;SDS_P1;SDS_P2;PMS_P1;PMS_P2;Temp;Humidity;BMP_temperature;BMP_pressure;BME280_temperature;BME280_humidity;BME280_pressure;Samples;Min_cycle;Max_cycle;Signal;HPM_P1;HPM_P2
2023/06/06 00:01:36;;;;;;;14.68;12.23;;;;;;;;;;7624985;19;20259;-77
2023/06/06 00:04:08;;;;;;;18.52;14.00;;;;;;;;;;7627917;19;20094;-77
2023/06/06 00:06:44;;;;;;;18.50;15.30;;;;;;;;;;7629919;19;20035;-76
2023/06/06 00:09:17;;;;;;;21.73;15.32;;;;;;;;;;7636455;19;20018;-76
2023/06/06 00:11:49;;;;;;;20.45;15.82;;;;;;;;;;7636879;19;20018;-77
2023/06/06 00:14:22;;;;;;;23.27;16.47;;;;;;;;;;7645866;19;20068;-77
2023/06/06 00:16:55;;;;;;;18.42;15.35;;;;;;;;;;7642257;19;20609;-77
2023/06/06 00:19:28;;;;;;;25.58;17.48;;;;;;;;;;7641239;19;20039;-76
2023/06/06 00:22:01;;;;;;;21.13;16.20;;;;;;;;;;7645693;19;20034;-76
2023/06/06 00:24:34;;;;;;;20.52;16.45;;;;;;;;;;7627155;19;20018;-77
2023/06/06 00:27:07;;;;;;;21.00;16.42;;;;;;;;;;7627924;19;20018;-77
2023/06/06 00:29:40;;;;;;;23.60;16.88;;;;;;;;;;7629141;19;20011;-77
2023/06/06 00:32:13;;;;;;;20.75;15.88;;;;;;;;;;7624642;19;20089;-77
2023/06/06 00:34:46;;;;;;;20.65;16.13;;;;;;;;;;7609072;19;20011;-77
2023/06/06 00:37:19;;;;;;;21.67;15.82;;;;;;;;;;7608895;19;20018;-76
2023/06/06 00:39:52;;;;;;;25.90;16.25;;;;;;;;;;7609864;19;20831;-76
2023/06/06 00:42:25;;;;;;;19.00;15.43;;;;;;;;;;7612066;19;20468;-77
2023/06/06 00:44:58;;;;;;;19.15;14.70;;;;;;;;;;7606607;19;20025;-76
2023/06/06 00:47:31;;;;;;;17.88;14.43;;;;;;;;;;7610263;19;20022;-77
2023/06/06 00:50:05;;;;;;;21.77;16.53;;;;;;;;;;7613317;19;20029;-81
2023/06/06 00:52:45;;;;;;;18.10;14.30;;;;;;;;;;7609739;19;20042;-80
2023/06/06 00:55:20;;;;;;;19.63;14.27;;;;;;;;;;7610809;19;20051;-80
2023/06/06 00:57:53;;;;;;;21.33;16.77;;;;;;;;;;7614084;19;20029;-80
2023/06/06 01:00:27;;;;;;;17.40;13.60;;;;;;;;;;7608708;19;20129;-80
2023/06/06 01:03:03;;;;;;;18.30;14.07;;;;;;;;;;7609833;19;20093;-81
2023/06/06 01:05:37;;;;;;;20.83;15.20;;;;;;;;;;7611781;19;20024;-80
2023/06/06 01:08:12;;;;;;;19.05;14.40;;;;;;;;;;7609049;19;20044;-81
2023/06/06 01:10:45;;;;;;;19.17;13.90;;;;;;;;;;7612685;19;20094;-81
2023/06/06 01:13:24;;;;;;;21.13;15.13;;;;;;;;;;7609712;19;20010;-80
2023/06/06 01:16:03;;;;;;;17.63;14.13;;;;;;;;;;7614740;19;20072;-81
2023/06/06 01:18:37;;;;;;;19.98;14.43;;;;;;;;;;7610363;19;20007;-80
2023/06/06 01:21:11;;;;;;;23.40;15.90;;;;;;;;;;7608620;19;20019;-81
2023/06/06 01:23:43;;;;;;;20.27;15.63;;;;;;;;;;7599848;19;20747;-80
2023/06/06 01:26:17;;;;;;;24.37;18.67;;;;;;;;;;7612523;19;22225;-81
2023/06/06 01:28:50;;;;;;;34.00;23.20;;;;;;;;;;7609630;19;20011;-80
2023/06/06 01:31:22;;;;;;;35.90;22.58;;;;;;;;;;7607747;19;20045;-80
2023/06/06 01:33:59;;;;;;;30.98;21.50;;;;;;;;;;7608061;19;20696;-80
2023/06/06 01:36:37;;;;;;;25.05;18.63;;;;;;;;;;7607551;19;20137;-79
2023/06/06 01:39:12;;;;;;;23.85;17.27;;;;;;;;;;7609274;19;20014;-79
2023/06/06 01:41:45;;;;;;;23.83;17.38;;;;;;;;;;7606091;19;20992;-81
2023/06/06 01:44:21;;;;;;;22.30;16.15;;;;;;;;;;7602941;19;20014;-80
2023/06/06 01:46:54;;;;;;;23.85;17.27;;;;;;;;;;7604922;19;20841;-80
2023/06/06 01:49:27;;;;;;;26.85;19.33;;;;;;;;;;7601514;19;20011;-80
2023/06/06 01:52:01;;;;;;;34.38;21.52;;;;;;;;;;7608895;19;20011;-80
2023/06/06 01:54:35;;;;;;;32.53;21.95;;;;;;;;;;7598297;19;20534;-80
2023/06/06 01:57:07;;;;;;;;;;;;;;;;;;7602630;19;20019;-80
2023/06/06 01:59:41;;;;;;;33.45;23.02;;;;;;;;;;7599994;19;19923;-80
2023/06/06 02:02:17;;;;;;;34.42;23.98;;;;;;;;;;7600696;19;20014;-80
2023/06/06 02:04:50;;;;;;;36.60;24.75;;;;;;;;;;7602714;19;20117;-80
2023/06/06 02:07:24;;;;;;;34.10;23.58;;;;;;;;;;7594198;19;20755;-79
2023/06/06 02:09:57;;;;;;;32.20;23.02;;;;;;;;;;7599575;19;20010;-80
2023/06/06 02:12:30;;;;;;;36.35;23.73;;;;;;;;;;7592990;19;20019;-79
2023/06/06 02:15:05;;;;;;;35.85;24.08;;;;;;;;;;7594227;19;20019;-80
2023/06/06 02:17:38;;;;;;;33.33;23.77;;;;;;;;;;7592208;19;20042;-79
2023/06/06 02:20:12;;;;;;;36.80;23.30;;;;;;;;;;7588761;19;20021;-79
2023/06/06 02:22:45;;;;;;;34.97;23.63;;;;;;;;;;7587891;19;20138;-79
2023/06/06 02:25:19;;;;;;;38.08;25.77;;;;;;;;;;7592380;19;20019;-79
2023/06/06 02:27:53;;;;;;;35.15;24.23;;;;;;;;;;7591244;19;20010;-79
2023/06/06 02:30:26;;;;;;;36.50;24.48;;;;;;;;;;7593967;19;20018;-80
2023/06/06 02:33:00;;;;;;;34.42;23.42;;;;;;;;;;7586715;19;20015;-79
2023/06/06 02:35:33;;;;;;;34.83;24.08;;;;;;;;;;7590321;19;20054;-80
2023/06/06 02:38:06;;;;;;;35.63;24.60;;;;;;;;;;7595136;19;20085;-80
2023/06/06 02:40:38;;;;;;;38.25;24.83;;;;;;;;;;7595680;19;20011;-80
2023/06/06 02:43:11;;;;;;;41.67;26.30;;;;;;;;;;7593908;19;20062;-79
2023/06/06 02:45:46;;;;;;;35.93;24.20;;;;;;;;;;7592969;19;20800;-80
2023/06/06 02:48:20;;;;;;;39.38;25.92;;;;;;;;;;7599138;19;20029;-79
2023/06/06 02:50:53;;;;;;;37.78;24.10;;;;;;;;;;7591152;19;20024;-80
2023/06/06 02:53:27;;;;;;;35.83;24.08;;;;;;;;;;7595905;19;20387;-80
2023/06/06 02:56:00;;;;;;;34.22;24.00;;;;;;;;;;7593523;19;20364;-79
2023/06/06 02:58:33;;;;;;;35.45;23.67;;;;;;;;;;7596528;19;20019;-79
2023/06/06 03:01:06;;;;;;;31.70;21.67;;;;;;;;;;7594203;19;20040;-80
2023/06/06 03:03:40;;;;;;;36.40;24.80;;;;;;;;;;7592947;19;20027;-80
2023/06/06 03:06:15;;;;;;;;;;;;;;;;;;7592052;19;20078;-80
2023/06/06 03:08:49;;;;;;;33.85;21.50;;;;;;;;;;7591939;19;20411;-82
2023/06/06 03:11:22;;;;;;;33.55;22.85;;;;;;;;;;7620735;19;20838;-81
2023/06/06 03:13:55;;;;;;;34.80;24.10;;;;;;;;;;7599172;19;20015;-80
2023/06/06 03:16:28;;;;;;;32.20;22.13;;;;;;;;;;7597574;19;20014;-81
2023/06/06 03:19:03;;;;;;;31.52;22.65;;;;;;;;;;7593030;19;20078;-81
2023/06/06 03:21:38;;;;;;;35.85;24.55;;;;;;;;;;7597865;19;21758;-80
2023/06/06 03:24:13;;;;;;;32.95;22.80;;;;;;;;;;7589899;19;20026;-80
2023/06/06 03:26:48;;;;;;;30.75;21.70;;;;;;;;;;7592938;19;20037;-81
2023/06/06 03:29:22;;;;;;;34.58;25.02;;;;;;;;;;7592083;19;20145;-81
2023/06/06 03:31:55;;;;;;;38.47;26.65;;;;;;;;;;7591388;19;20094;-81
2023/06/06 03:34:29;;;;;;;40.40;26.77;;;;;;;;;;7590818;19;20018;-80
2023/06/06 03:37:03;;;;;;;51.85;31.63;;;;;;;;;;7597310;19;20019;-81
2023/06/06 03:39:36;;;;;;;40.08;27.48;;;;;;;;;;7600413;19;20532;-80
2023/06/06 03:42:14;;;;;;;45.05;28.77;;;;;;;;;;7599692;19;20094;-80
2023/06/06 03:44:46;;;;;;;37.83;26.80;;;;;;;;;;7599208;19;20026;-80
2023/06/06 03:47:19;;;;;;;42.77;28.47;;;;;;;;;;7603184;19;20026;-80
2023/06/06 03:49:52;;;;;;;40.30;26.00;;;;;;;;;;7584860;19;20459;-80
2023/06/06 03:52:25;;;;;;;36.45;25.92;;;;;;;;;;7596796;19;20018;-79
2023/06/06 03:54:58;;;;;;;40.33;27.73;;;;;;;;;;7597395;19;20053;-80
2023/06/06 03:57:31;;;;;;;40.95;28.50;;;;;;;;;;7599544;19;21456;-79
2023/06/06 04:00:10;;;;;;;45.28;28.95;;;;;;;;;;7600198;19;20496;-80
2023/06/06 04:02:48;;;;;;;45.42;29.52;;;;;;;;;;7597319;19;20527;-80
2023/06/06 04:05:21;;;;;;;49.20;30.05;;;;;;;;;;7598233;19;20945;-80
2023/06/06 04:07:53;;;;;;;40.33;28.33;;;;;;;;;;7593610;19;20026;-80
2023/06/06 04:10:26;;;;;;;45.10;30.00;;;;;;;;;;7594838;19;20052;-81
2023/06/06 04:13:01;;;;;;;39.15;28.58;;;;;;;;;;7601874;19;20093;-80
2023/06/06 04:15:34;;;;;;;41.50;27.48;;;;;;;;;;7598505;19;20038;-80
2023/06/06 04:18:07;;;;;;;38.72;26.80;;;;;;;;;;7599613;19;21185;-80
2023/06/06 04:20:43;;;;;;;35.97;22.48;;;;;;;;;;7595580;19;20670;-80
2023/06/06 04:23:16;;;;;;;32.80;22.25;;;;;;;;;;7600121;19;20990;-79
2023/06/06 04:25:49;;;;;;;35.95;23.75;;;;;;;;;;7593297;19;20859;-81
2023/06/06 04:28:21;;;;;;;36.42;23.88;;;;;;;;;;7599645;19;20018;-79
2023/06/06 04:30:55;;;;;;;;;;;;;;;;;;7597271;19;20424;-80
2023/06/06 04:33:30;;;;;;;32.00;21.55;;;;;;;;;;7598063;19;19937;-80
2023/06/06 04:36:03;;;;;;;27.60;18.40;;;;;;;;;;7601245;19;20025;-80
2023/06/06 04:38:37;;;;;;;20.80;15.13;;;;;;;;;;7602792;19;20050;-80
2023/06/06 04:41:10;;;;;;;20.00;12.27;;;;;;;;;;7601713;19;20011;-80
2023/06/06 04:43:49;;;;;;;16.20;11.73;;;;;;;;;;7602438;19;20021;-80
2023/06/06 04:46:23;;;;;;;17.20;11.00;;;;;;;;;;7609100;19;20968;-79
2023/06/06 04:48:59;;;;;;;15.05;12.07;;;;;;;;;;7592795;19;20410;-80
2023/06/06 04:51:33;;;;;;;16.98;12.88;;;;;;;;;;7598072;19;20626;-80
2023/06/06 04:54:07;;;;;;;19.30;12.93;;;;;;;;;;7593480;19;21282;-80
2023/06/06 04:56:40;;;;;;;17.60;12.90;;;;;;;;;;7599087;19;20011;-80
2023/06/06 04:59:16;;;;;;;16.65;12.40;;;;;;;;;;7598033;19;20026;-80
2023/06/06 05:01:49;;;;;;;29.23;12.85;;;;;;;;;;7593144;19;20558;-81
2023/06/06 05:04:22;;;;;;;21.35;11.63;;;;;;;;;;7597466;19;20019;-80
2023/06/06 05:06:55;;;;;;;15.77;10.90;;;;;;;;;;7602334;19;20018;-80
2023/06/06 05:09:28;;;;;;;15.07;9.40;;;;;;;;;;7598869;19;20018;-80
2023/06/06 05:12:00;;;;;;;14.30;9.77;;;;;;;;;;7597372;19;20013;-79
2023/06/06 05:14:33;;;;;;;16.83;9.10;;;;;;;;;;7597046;19;21174;-79
2023/06/06 05:17:06;;;;;;;19.65;11.50;;;;;;;;;;7595481;19;20724;-79
2023/06/06 05:19:38;;;;;;;18.07;12.97;;;;;;;;;;7600373;19;21266;-79
2023/06/06 05:22:12;;;;;;;23.02;15.45;;;;;;;;;;7592710;19;21310;-80
2023/06/06 05:24:45;;;;;;;24.88;15.30;;;;;;;;;;7590849;19;20025;-79
2023/06/06 05:27:18;;;;;;;21.23;14.07;;;;;;;;;;7598407;19;20018;-80
2023/06/06 05:29:51;;;;;;;20.13;13.38;;;;;;;;;;7598127;19;20102;-79
2023/06/06 05:32:23;;;;;;;20.00;12.50;;;;;;;;;;7588540;19;20673;-79
2023/06/06 05:34:56;;;;;;;18.05;12.88;;;;;;;;;;7595993;19;20597;-80
2023/06/06 05:37:29;;;;;;;16.67;12.03;;;;;;;;;;7598330;19;20056;-80
2023/06/06 05:40:03;;;;;;;17.10;11.68;;;;;;;;;;7594061;19;20018;-79
2023/06/06 05:42:35;;;;;;;;;;;;;;;;;;7598350;19;20022;-79
2023/06/06 05:45:08;;;;;;;16.63;10.38;;;;;;;;;;7593137;19;20437;-80
2023/06/06 05:47:41;;;;;;;13.73;9.15;;;;;;;;;;7598854;19;20617;-80
2023/06/06 05:50:14;;;;;;;10.17;8.20;;;;;;;;;;7594728;19;20078;-80
2023/06/06 05:52:46;;;;;;;11.35;9.15;;;;;;;;;;7598758;19;20067;-80
2023/06/06 05:55:35;;;;;;;11.67;9.10;;;;;;;;;;7597699;19;20042;-80
2023/06/06 05:58:08;;;;;;;11.68;8.90;;;;;;;;;;7595283;19;20090;-80
2023/06/06 06:00:41;;;;;;;13.30;9.73;;;;;;;;;;7598496;19;20022;-81
2023/06/06 06:03:14;;;;;;;13.27;9.82;;;;;;;;;;7594936;19;20070;-80
2023/06/06 06:05:47;;;;;;;15.07;10.18;;;;;;;;;;7594986;19;20011;-80
2023/06/06 06:08:21;;;;;;;14.57;10.40;;;;;;;;;;7596049;19;20014;-80
2023/06/06 06:10:53;;;;;;;12.13;9.35;;;;;;;;;;7595021;19;20107;-80
2023/06/06 06:13:26;;;;;;;14.90;10.35;;;;;;;;;;7596437;19;20018;-80
2023/06/06 06:15:59;;;;;;;14.43;11.10;;;;;;;;;;7598723;19;20033;-80
2023/06/06 06:18:33;;;;;;;12.75;9.68;;;;;;;;;;7599235;19;20090;-80
2023/06/06 06:21:05;;;;;;;18.25;11.80;;;;;;;;;;7595804;19;20014;-80
2023/06/06 06:23:38;;;;;;;15.68;10.38;;;;;;;;;;7593429;19;20022;-80
2023/06/06 06:26:11;;;;;;;19.38;13.30;;;;;;;;;;7592668;19;20018;-80
2023/06/06 06:28:44;;;;;;;18.77;13.00;;;;;;;;;;7596902;19;20021;-81
2023/06/06 06:31:16;;;;;;;19.48;14.30;;;;;;;;;;7596009;19;20283;-80
2023/06/06 06:33:49;;;;;;;20.05;14.02;;;;;;;;;;7591462;19;20536;-81
2023/06/06 06:36:22;;;;;;;21.65;14.63;;;;;;;;;;7598327;19;20022;-79
2023/06/06 06:38:55;;;;;;;26.43;15.33;;;;;;;;;;7590812;19;20010;-79
2023/06/06 06:41:28;;;;;;;20.92;14.50;;;;;;;;;;7599915;19;20054;-80
2023/06/06 06:44:00;;;;;;;22.42;15.15;;;;;;;;;;7592126;19;21265;-80
2023/06/06 06:46:34;;;;;;;19.58;14.18;;;;;;;;;;7598873;19;20022;-79
2023/06/06 06:49:09;;;;;;;20.75;13.70;;;;;;;;;;7588773;19;20018;-79
2023/06/06 06:51:42;;;;;;;20.77;14.48;;;;;;;;;;7599391;19;20025;-80
2023/06/06 06:54:21;;;;;;;18.50;13.38;;;;;;;;;;7587065;19;20018;-79
2023/06/06 06:56:54;;;;;;;15.75;11.30;;;;;;;;;;7592367;19;20014;-79
2023/06/06 06:59:27;;;;;;;15.27;9.95;;;;;;;;;;7594260;19;20019;-79
2023/06/06 07:02:02;;;;;;;12.73;8.90;;;;;;;;;;7590880;19;20048;-79
2023/06/06 07:04:36;;;;;;;14.02;8.95;;;;;;;;;;7594135;19;20015;-80
2023/06/06 07:07:09;;;;;;;11.40;8.35;;;;;;;;;;7587850;19;20015;-79
2023/06/06 07:09:43;;;;;;;13.20;9.43;;;;;;;;;;7596774;19;20123;-79
2023/06/06 07:12:16;;;;;;;11.00;8.48;;;;;;;;;;7588487;19;21052;-80
2023/06/06 07:14:48;;;;;;;8.85;7.70;;;;;;;;;;7592104;19;20647;-79
2023/06/06 07:17:21;;;;;;;11.95;7.65;;;;;;;;;;7592032;19;20022;-79
2023/06/06 07:19:54;;;;;;;10.87;8.37;;;;;;;;;;7589513;19;20029;-80
2023/06/06 07:22:27;;;;;;;13.25;8.52;;;;;;;;;;7582720;19;20271;-79
2023/06/06 07:24:59;;;;;;;10.43;7.95;;;;;;;;;;7586773;19;20017;-79
2023/06/06 07:27:35;;;;;;;10.45;8.30;;;;;;;;;;7593065;19;20026;-80
2023/06/06 07:30:12;;;;;;;9.75;8.05;;;;;;;;;;7588049;19;20610;-79
2023/06/06 07:32:46;;;;;;;10.02;8.18;;;;;;;;;;7591337;19;20387;-79
2023/06/06 07:35:20;;;;;;;12.30;9.32;;;;;;;;;;7589476;19;20591;-80
2023/06/06 07:37:53;;;;;;;15.70;9.55;;;;;;;;;;7597294;19;20010;-79
2023/06/06 07:40:25;;;;;;;16.87;9.63;;;;;;;;;;7598154;19;20484;-79
2023/06/06 07:42:59;;;;;;;11.02;8.90;;;;;;;;;;7589966;19;21192;-80
2023/06/06 07:45:32;;;;;;;12.90;9.65;;;;;;;;;;7592066;19;20034;-79
2023/06/06 07:48:05;;;;;;;9.70;8.47;;;;;;;;;;7591910;19;20607;-80
2023/06/06 07:50:44;;;;;;;12.68;9.60;;;;;;;;;;7592038;19;20582;-80
2023/06/06 07:53:17;;;;;;;12.55;9.55;;;;;;;;;;7581578;19;20010;-80
2023/06/06 07:55:50;;;;;;;12.95;10.48;;;;;;;;;;7591272;19;21050;-80
2023/06/06 07:58:26;;;;;;;13.85;9.63;;;;;;;;;;7592062;19;20025;-79
2023/06/06 08:01:00;;;;;;;12.13;9.90;;;;;;;;;;7593533;19;20832;-79
2023/06/06 08:03:33;;;;;;;11.50;9.98;;;;;;;;;;7589312;19;20030;-79
2023/06/06 08:06:06;;;;;;;11.73;9.38;;;;;;;;;;7590701;19;20017;-80
2023/06/06 08:08:40;;;;;;;15.38;9.95;;;;;;;;;;7590829;19;20020;-80
2023/06/06 08:11:13;;;;;;;12.93;9.60;;;;;;;;;;7595969;19;20043;-80
2023/06/06 08:13:46;;;;;;;11.70;9.23;;;;;;;;;;7589632;19;20500;-79
2023/06/06 08:16:19;;;;;;;12.90;8.93;;;;;;;;;;7590963;19;20502;-79
2023/06/06 08:18:52;;;;;;;12.93;10.25;;;;;;;;;;7590407;19;20037;-79
2023/06/06 08:21:25;;;;;;;11.15;9.20;;;;;;;;;;7594418;19;20018;-79
2023/06/06 08:23:57;;;;;;;12.05;9.15;;;;;;;;;;7593581;19;20534;-78
2023/06/06 08:26:30;;;;;;;9.80;8.13;;;;;;;;;;7602177;19;20668;-79
2023/06/06 08:29:03;;;;;;;10.13;8.35;;;;;;;;;;7599370;19;20062;-80
2023/06/06 08:31:36;;;;;;;12.20;8.48;;;;;;;;;;7602990;19;20045;-78
2023/06/06 08:34:08;;;;;;;10.13;7.60;;;;;;;;;;7608492;19;20018;-80
2023/06/06 08:36:41;;;;;;;10.52;8.05;;;;;;;;;;7609886;19;20026;-79
2023/06/06 08:39:16;;;;;;;11.32;7.60;;;;;;;;;;7595633;19;20018;-79
2023/06/06 08:41:53;;;;;;;10.82;8.20;;;;;;;;;;7601290;19;20015;-79
2023/06/06 08:44:25;;;;;;;11.70;8.27;;;;;;;;;;7599828;19;21143;-79
2023/06/06 08:46:59;;;;;;;9.35;8.18;;;;;;;;;;7597014;19;20025;-80
2023/06/06 08:49:33;;;;;;;13.55;8.55;;;;;;;;;;7602342;19;20017;-79
2023/06/06 08:52:06;;;;;;;11.63;8.27;;;;;;;;;;7598335;19;20015;-80
2023/06/06 08:54:39;;;;;;;12.25;9.60;;;;;;;;;;7600153;19;20015;-79
2023/06/06 08:57:12;;;;;;;;;;;;;;;;;;7600093;19;20575;-80
2023/06/06 08:59:46;;;;;;;11.40;9.30;;;;;;;;;;7601840;19;19918;-80
2023/06/06 09:02:19;;;;;;;9.85;7.70;;;;;;;;;;7598522;19;20026;-80
2023/06/06 09:04:52;;;;;;;10.80;8.60;;;;;;;;;;7600677;19;20923;-80
2023/06/06 09:07:26;;;;;;;8.90;7.43;;;;;;;;;;7601891;19;20617;-79
2023/06/06 09:09:59;;;;;;;10.18;7.72;;;;;;;;;;7602407;19;20041;-80
2023/06/06 09:12:41;;;;;;;9.97;6.80;;;;;;;;;;7602509;19;20018;-80
2023/06/06 09:15:14;;;;;;;7.43;6.40;;;;;;;;;;7593569;19;20030;-80
2023/06/06 09:17:47;;;;;;;12.25;6.70;;;;;;;;;;7604667;19;20022;-80
2023/06/06 09:20:22;;;;;;;8.35;5.78;;;;;;;;;;7599411;19;20050;-80
2023/06/06 09:22:57;;;;;;;7.63;6.05;;;;;;;;;;7600081;19;20695;-81
2023/06/06 09:25:30;;;;;;;10.43;6.10;;;;;;;;;;7600341;19;20985;-79
2023/06/06 09:28:03;;;;;;;8.73;6.57;;;;;;;;;;7602690;19;20078;-79
2023/06/06 09:30:36;;;;;;;7.40;5.47;;;;;;;;;;7605735;19;20030;-80
2023/06/06 09:33:08;;;;;;;8.50;6.10;;;;;;;;;;7595111;19;20268;-80
2023/06/06 09:35:42;;;;;;;7.03;5.75;;;;;;;;;;7607950;19;20018;-79
2023/06/06 09:38:16;;;;;;;8.00;5.43;;;;;;;;;;7602188;19;21030;-79
2023/06/06 09:40:48;;;;;;;;;;;;;;;;;;7602810;19;20014;-80
2023/06/06 09:43:24;;;;;;;5.90;5.13;;;;;;;;;;7603339;19;20360;-80
2023/06/06 09:45:58;;;;;;;6.05;5.43;;;;;;;;;;7606338;19;20014;-80
2023/06/06 09:48:32;;;;;;;6.25;4.78;;;;;;;;;;7603905;19;20018;-79
2023/06/06 09:51:05;;;;;;;8.20;5.00;;;;;;;;;;7599559;19;20022;-79
2023/06/06 09:53:40;;;;;;;9.40;5.13;;;;;;;;;;7599966;19;20097;-80
2023/06/06 09:56:13;;;;;;;7.82;4.95;;;;;;;;;;7600937;19;20023;-79
2023/06/06 09:58:47;;;;;;;5.78;4.13;;;;;;;;;;7601633;19;20112;-80
2023/06/06 10:01:25;;;;;;;7.13;4.35;;;;;;;;;;7601777;19;21372;-80
2023/06/06 10:03:58;;;;;;;6.07;4.30;;;;;;;;;;7597580;19;20006;-80
2023/06/06 10:06:37;;;;;;;5.68;3.85;;;;;;;;;;7602740;19;20025;-79
2023/06/06 10:09:11;;;;;;;6.22;4.38;;;;;;;;;;7590813;19;20017;-80
2023/06/06 10:11:43;;;;;;;;;;;;;;;;;;7602776;19;20979;-80
2023/06/06 10:14:16;;;;;;;9.55;4.22;;;;;;;;;;7601717;19;19919;-80
2023/06/06 10:16:49;;;;;;;5.68;4.50;;;;;;;;;;7601497;19;20022;-81
2023/06/06 10:19:22;;;;;;;5.55;3.80;;;;;;;;;;7601258;19;20556;-80
2023/06/06 10:21:55;;;;;;;4.15;3.67;;;;;;;;;;7598025;19;20165;-79
2023/06/06 10:24:29;;;;;;;5.00;4.28;;;;;;;;;;7596003;19;20018;-80
2023/06/06 10:27:06;;;;;;;6.75;4.40;;;;;;;;;;7594107;19;20034;-80
2023/06/06 10:29:48;;;;;;;8.05;4.20;;;;;;;;;;7599417;19;20033;-81
2023/06/06 10:32:25;;;;;;;4.00;3.35;;;;;;;;;;7593803;19;20105;-81
2023/06/06 10:34:59;;;;;;;7.03;3.35;;;;;;;;;;7596319;19;20018;-79
2023/06/06 10:37:33;;;;;;;6.80;3.53;;;14.20;99.90;;;;;;7600026;19;20019;-82
2023/06/06 10:40:10;;;;;;;7.35;4.15;;;;;;;;;;7594630;19;20024;-81
2023/06/06 10:42:43;;;;;;;3.90;3.47;;;;;;;;;;7602539;19;20015;-80
2023/06/06 10:45:17;;;;;;;6.47;3.73;;;20.00;99.10;;;;;;7598892;19;20710;-80
2023/06/06 10:48:00;;;;;;;4.68;3.67;;;20.40;96.60;;;;;;7599544;19;20082;-79
2023/06/06 10:50:33;;;;;;;3.72;3.30;;;20.30;96.80;;;;;;7599697;19;20599;-81
2023/06/06 10:53:16;;;;;;;7.70;3.97;;;;;;;;;;7595376;19;20040;-81
2023/06/06 10:55:49;;;;;;;4.40;3.88;;;;;;;;;;7600173;19;20018;-81
2023/06/06 10:58:26;;;;;;;6.15;3.25;;;;;;;;;;7598263;19;20022;-81
2023/06/06 11:01:01;;;;;;;4.70;3.30;;;;;;;;;;7598507;19;20018;-82
2023/06/06 11:03:37;;;;;;;9.50;3.67;;;;;;;;;;7598645;19;20022;-81
2023/06/06 11:06:11;;;;;;;6.28;3.55;;;;;;;;;;7598510;19;20864;-81
2023/06/06 11:08:55;;;;;;;9.93;3.67;;;;;;;;;;7598579;19;20601;-81
2023/06/06 11:11:32;;;;;;;6.60;3.60;;;;;;;;;;7600220;19;20995;-80
2023/06/06 11:14:06;;;;;;;4.45;3.10;;;;;;;;;;7600477;19;20009;-80
2023/06/06 11:16:48;;;;;;;4.85;3.17;;;;;;;;;;7620099;19;20134;-80
2023/06/06 11:19:29;;;;;;;5.43;3.72;;;20.10;96.20;;;;;;7605590;19;21952;-81
2023/06/06 11:22:02;;;;;;;4.72;2.75;;;;;;;;;;7597804;19;20019;-82
2023/06/06 11:24:35;;;;;;;5.25;2.92;;;;;;;;;;7597736;19;20657;-80
2023/06/06 11:27:09;;;;;;;3.70;3.00;;;;;;;;;;7596818;19;20011;-81
2023/06/06 11:29:42;;;;;;;4.13;2.88;;;21.60;91.70;;;;;;7599552;19;20021;-81
2023/06/06 11:32:15;;;;;;;4.03;3.63;;;23.00;86.40;;;;;;7596584;19;20033;-81
2023/06/06 11:34:47;;;;;;;3.53;3.23;;;23.40;80.30;;;;;;7598683;19;20939;-81
2023/06/06 11:37:19;;;;;;;4.68;3.22;;;23.70;79.70;;;;;;7597642;19;20010;-79
2023/06/06 11:39:52;;;;;;;6.93;3.60;;;23.60;78.50;;;;;;7598383;19;20513;-80
2023/06/06 11:42:24;;;;;;;6.93;3.40;;;23.70;77.80;;;;;;7599842;19;20137;-80
2023/06/06 11:44:57;;;;;;;4.03;3.17;;;23.70;76.90;;;;;;7603072;19;20499;-80
2023/06/06 11:47:33;;;;;;;6.40;3.55;;;24.10;76.90;;;;;;7596410;19;20276;-81
2023/06/06 11:50:06;;;;;;;6.53;3.15;;;24.20;75.90;;;;;;7596428;19;20034;-81
2023/06/06 11:52:42;;;;;;;;;;;24.50;74.80;;;;;;7595356;19;20832;-81
2023/06/06 11:55:15;;;;;;;4.95;3.17;;;24.70;73.40;;;;;;7592618;19;19950;-80
2023/06/06 11:57:47;;;;;;;6.28;3.72;;;24.40;72.40;;;;;;7599838;19;20042;-80
2023/06/06 12:00:27;;;;;;;8.55;4.13;;;24.10;72.50;;;;;;7603332;19;20021;-80
2023/06/06 12:02:59;;;;;;;5.75;4.13;;;23.60;71.70;;;;;;7601838;19;20029;-80
2023/06/06 12:05:32;;;;;;;7.75;3.90;;;22.90;74.40;;;;;;7599879;19;20025;-80
2023/06/06 12:08:04;;;;;;;5.25;3.72;;;22.90;75.20;;;;;;7600494;19;20017;-80
2023/06/06 12:10:36;;;;;;;4.60;3.60;;;23.00;76.50;;;;;;7626472;19;20018;-80
2023/06/06 12:13:09;;;;;;;4.93;3.72;;;22.80;76.00;;;;;;7625003;19;20014;-80
2023/06/06 12:15:48;;;;;;;5.53;3.60;;;22.90;73.90;;;;;;7624798;19;20051;-80
2023/06/06 12:18:21;;;;;;;8.10;4.00;;;23.10;74.30;;;;;;7610684;19;20483;-80
2023/06/06 12:20:53;;;;;;;4.93;3.93;;;22.90;72.10;;;;;;7606743;19;20613;-80
2023/06/06 12:23:30;;;;;;;6.45;3.92;;;23.00;73.00;;;;;;7603043;19;20278;-80
2023/06/06 12:26:03;;;;;;;5.28;4.25;;;23.30;74.10;;;;;;7603103;19;20025;-79
2023/06/06 12:28:37;;;;;;;8.80;4.10;;;24.00;74.90;;;;;;7603339;19;20018;-80
2023/06/06 12:31:17;;;;;;;7.65;4.18;;;23.90;72.90;;;;;;7599289;19;20052;-80
2023/06/06 12:33:52;;;;;;;4.63;4.18;;;23.50;73.00;;;;;;7602653;19;20018;-80
2023/06/06 12:36:26;;;;;;;5.55;4.07;;;23.30;73.80;;;;;;7598683;19;20022;-80
2023/06/06 12:38:58;;;;;;;5.57;4.55;;;23.30;72.80;;;;;;7604740;19;20014;-79
2023/06/06 12:41:39;;;;;;;6.97;4.15;;;23.60;72.60;;;;;;7601648;19;20400;-80
2023/06/06 12:44:15;;;;;;;11.85;4.30;;;24.10;70.40;;;;;;7595478;19;20027;-79
2023/06/06 12:46:48;;;;;;;5.35;3.80;;;23.80;70.20;;;;;;7601344;19;20833;-80
2023/06/06 12:49:20;;;;;;;;;;;23.90;70.10;;;;;;7597374;19;20029;-80
2023/06/06 12:51:52;;;;;;;8.45;4.50;;;24.20;69.70;;;;;;7601337;19;19925;-80
2023/06/06 12:54:25;;;;;;;5.03;4.13;;;24.10;68.00;;;;;;7593768;19;20018;-80
2023/06/06 12:56:57;;;;;;;5.75;3.95;;;24.60;66.70;;;;;;7602129;19;20021;-80
2023/06/06 12:59:30;;;;;;;5.18;4.00;;;25.00;68.40;;;;;;7597458;19;20014;-80
2023/06/06 13:02:06;;;;;;;7.50;4.80;;;25.00;65.10;;;;;;7601903;19;20022;-80
2023/06/06 13:04:41;;;;;;;8.63;4.38;;;24.40;64.90;;;;;;7598968;19;20015;-80
2023/06/06 13:07:13;;;;;;;6.60;4.35;;;24.00;66.70;;;;;;7586011;19;20026;-81
2023/06/06 13:09:45;;;;;;;5.88;3.80;;;23.90;67.60;;;;;;7603565;19;20073;-81
2023/06/06 13:12:18;;;;;;;8.88;4.22;;;24.00;65.70;;;;;;7598615;19;20010;-83
2023/06/06 13:14:51;;;;;;;4.85;3.72;;;24.40;66.80;;;;;;7600195;19;20026;-80
2023/06/06 13:17:24;;;;;;;8.05;4.45;;;24.40;66.80;;;;;;7598787;19;20026;-81
2023/06/06 13:19:57;;;;;;;6.57;4.10;;;24.60;66.00;;;;;;7602169;19;20025;-81
2023/06/06 13:22:29;;;;;;;6.47;4.10;;;24.80;63.80;;;;;;7595818;19;20014;-80
2023/06/06 13:25:03;;;;;;;6.95;4.38;;;24.80;65.10;;;;;;7600933;19;20414;-80
2023/06/06 13:27:35;;;;;;;8.15;4.18;;;24.40;65.20;;;;;;7596111;19;20010;-80
2023/06/06 13:30:08;;;;;;;5.17;4.07;;;24.80;66.30;;;;;;7597384;19;20025;-80
2023/06/06 13:32:41;;;;;;;6.45;3.92;;;25.40;67.40;;;;;;7597327;19;20619;-79
2023/06/06 13:35:13;;;;;;;6.37;3.80;;;25.90;63.90;;;;;;7594868;19;20045;-80
2023/06/06 13:37:46;;;;;;;8.13;3.90;;;26.40;61.30;;;;;;7600178;19;20796;-80
2023/06/06 13:40:18;;;;;;;7.50;4.40;;;26.60;62.40;;;;;;7597825;19;20121;-80
2023/06/06 13:42:51;;;;;;;8.77;4.00;;;26.60;58.50;;;;;;7603236;19;20014;-80
2023/06/06 13:45:23;;;;;;;7.38;4.18;;;25.90;57.80;;;;;;7600029;19;20006;-81
2023/06/06 13:47:55;;;;;;;5.80;4.38;;;26.00;59.70;;;;;;7602125;19;20563;-81
2023/06/06 13:50:28;;;;;;;8.02;3.83;;;25.80;62.10;;;;;;7601265;19;20045;-80
2023/06/06 13:53:03;;;;;;;5.25;4.03;;;25.50;61.80;;;;;;7600204;19;20026;-80
2023/06/06 13:55:36;;;;;;;5.72;4.43;;;25.40;63.50;;;;;;7601575;19;20017;-79
2023/06/06 13:58:08;;;;;;;8.07;4.28;;;25.10;63.30;;;;;;7616693;19;20047;-81
2023/06/06 14:00:44;;;;;;;12.90;4.13;;;25.00;64.00;;;;;;7608778;19;20021;-80
2023/06/06 14:03:17;;;;;;;8.85;3.80;;;24.80;64.50;;;;;;7599296;19;20007;-79
2023/06/06 14:05:49;;;;;;;;;;;25.00;63.70;;;;;;7601128;19;20018;-80
2023/06/06 14:08:22;;;;;;;6.93;4.18;;;25.50;63.30;;;;;;7594145;19;19930;-82
2023/06/06 14:10:56;;;;;;;8.20;4.07;;;26.10;64.30;;;;;;7601509;19;20107;-81
2023/06/06 14:13:29;;;;;;;9.32;3.40;;;26.40;63.60;;;;;;7596719;19;20018;-79
2023/06/06 14:16:01;;;;;;;8.48;4.20;;;26.70;63.50;;;;;;7604443;19;20026;-81
2023/06/06 14:18:34;;;;;;;7.32;3.90;;;26.80;62.40;;;;;;7599299;19;20018;-81
2023/06/06 14:23:51;;;;;;;8.27;4.13;;;27.40;61.20;;;;;;7596703;19;20038;-80
2023/06/06 14:26:23;;;;;;;6.90;3.88;;;27.20;59.70;;;;;;7598088;19;20019;-80
2023/06/06 14:28:56;;;;;;;4.87;4.37;;;26.80;61.30;;;;;;7596409;19;20018;-80
2023/06/06 14:31:28;;;;;;;7.30;4.63;;;26.30;62.30;;;;;;7598841;19;20014;-80
2023/06/06 14:34:00;;;;;;;10.70;5.27;;;25.80;62.80;;;;;;7595288;19;20815;-79
2023/06/06 14:36:33;;;;;;;9.82;4.55;;;25.30;63.70;;;;;;7600361;19;20121;-79
2023/06/06 14:39:06;;;;;;;5.97;4.33;;;25.20;64.80;;;;;;7600949;19;20014;-80
2023/06/06 14:41:38;;;;;;;6.67;4.83;;;25.50;63.30;;;;;;7597746;19;20052;-79